Time;durP1;ratioP1;P1;durP2;ratioP2;P2;SDS_P1;SDS_P2;PMS_P1;PMS_P2;Temp;Humidity;BMP_temperature;BMP_pressure;BME280_temperature;BME280_humidity;BME280_pressure;Samples;Min_cycle;Max_cycle;Signal;HPM_P1;HPM_P2
2021/12/21 00:00:02;;;;;;;9.53;4.87;;;1.20;99.90;;;;;;4973234;28;20181;-80
2021/12/21 00:02:28;;;;;;;8.53;4.90;;;1.20;99.90;;;;;;4985234;28;20191;-80
2021/12/21 00:04:55;;;;;;;8.47;4.90;;;1.10;99.90;;;;;;4946577;28;20202;-79
2021/12/21 00:07:21;;;;;;;10.50;5.10;;;1.20;99.90;;;;;;4964761;28;20226;-80
2021/12/21 00:09:48;;;;;;;9.20;4.97;;;1.20;99.90;;;;;;4992338;28;20201;-79
2021/12/21 00:13:01;;;;;;;9.43;5.70;;;1.30;99.90;;;;;;4947701;28;20652;-78
2021/12/21 00:23:36;;;;;;;12.40;5.47;;;1.30;99.90;;;;;;4967781;28;20188;-80
2021/12/21 00:26:19;;;;;;;10.10;5.40;;;1.50;99.90;;;;;;4959108;28;20212;-80
2021/12/21 00:28:57;;;;;;;12.07;5.50;;;1.60;99.90;;;;;;4956389;28;20209;-78
2021/12/21 00:31:27;;;;;;;8.73;5.40;;;1.60;99.90;;;;;;4962347;28;20252;-81
2021/12/21 00:33:53;;;;;;;10.63;5.33;;;1.60;99.90;;;;;;4969203;28;20277;-78
2021/12/21 00:36:21;;;;;;;9.40;5.13;;;1.60;99.90;;;;;;4968711;28;20188;-77
2021/12/21 00:38:56;;;;;;;12.07;6.27;;;1.70;99.90;;;;;;4956590;28;20238;-79
2021/12/21 00:41:22;;;;;;;9.83;5.60;;;1.70;99.90;;;;;;4972369;28;20225;-78
2021/12/21 00:43:47;;;;;;;14.83;6.10;;;1.80;99.90;;;;;;4972456;28;20200;-78
2021/12/21 00:46:14;;;;;;;11.03;5.60;;;1.70;99.90;;;;;;4957921;28;20235;-78
2021/12/21 00:48:48;;;;;;;13.00;5.53;;;1.80;99.90;;;;;;4958115;28;20203;-78
2021/12/21 00:51:15;;;;;;;11.73;5.83;;;1.80;99.90;;;;;;4963567;28;20188;-78
2021/12/21 00:53:40;;;;;;;8.73;5.00;;;1.60;99.90;;;;;;4994386;28;20201;-79
2021/12/21 00:56:06;;;;;;;10.37;5.40;;;1.30;99.90;;;;;;4995738;28;20191;-78
2021/12/21 00:58:32;;;;;;;8.73;5.50;;;1.40;99.90;;;;;;5013029;28;20247;-80
2021/12/21 01:01:03;;;;;;;9.63;5.47;;;1.50;99.90;;;;;;4988839;28;20202;-78
2021/12/21 01:03:29;;;;;;;16.33;6.00;;;1.40;99.90;;;;;;4960371;28;20189;-78
2021/12/21 01:06:09;;;;;;;8.73;5.30;;;1.40;99.90;;;;;;4973157;28;20204;-78
2021/12/21 01:08:47;;;;;;;8.27;5.67;;;1.50;99.90;;;;;;4972585;28;20214;-78
2021/12/21 01:11:22;;;;;;;9.30;5.07;;;1.50;99.90;;;;;;4989475;28;20271;-79
2021/12/21 01:19:00;;;;;;;11.23;5.23;;;1.50;99.90;;;;;;4987021;28;20211;-76
2021/12/21 01:21:31;;;;;;;11.47;5.67;;;1.50;99.90;;;;;;4978677;28;20594;-78
2021/12/21 01:26:36;;;;;;;11.13;4.90;;;1.50;99.90;;;;;;4989272;28;20211;-78
2021/12/21 01:32:29;;;;;;;12.17;5.80;;;1.30;99.90;;;;;;4929869;28;20178;-77
2021/12/21 01:42:52;;;;;;;11.40;5.07;;;0.80;99.90;;;;;;4976582;28;20191;-77
2021/12/21 01:50:54;;;;;;;12.77;5.80;;;0.70;99.90;;;;;;4966619;28;20176;-77
2021/12/21 01:53:20;;;;;;;11.07;5.63;;;0.60;99.90;;;;;;4959059;28;20183;-77
2021/12/21 01:55:47;;;;;;;8.33;5.03;;;0.70;99.90;;;;;;4962331;28;20180;-77
2021/12/21 01:58:18;;;;;;;10.90;5.30;;;0.70;99.90;;;;;;4972854;28;20229;-77
2021/12/21 02:00:44;;;;;;;11.00;5.50;;;0.60;99.90;;;;;;4964697;28;20217;-78
2021/12/21 02:03:10;;;;;;;10.57;5.60;;;0.70;99.90;;;;;;4964951;28;20172;-77
2021/12/21 02:05:39;;;;;;;9.00;5.37;;;0.60;99.90;;;;;;4983577;28;20207;-77
2021/12/21 02:08:05;;;;;;;10.97;5.30;;;0.90;99.90;;;;;;4958064;28;20194;-78
2021/12/21 02:10:32;;;;;;;10.37;5.47;;;1.10;99.90;;;;;;4972894;28;20549;-77
2021/12/21 02:13:02;;;;;;;10.70;5.60;;;1.20;99.90;;;;;;4958983;28;20644;-77
2021/12/21 02:15:42;;;;;;;11.17;6.03;;;1.00;99.90;;;;;;4974201;28;20192;-77
2021/12/21 02:21:24;;;;;;;9.80;5.03;;;1.10;99.90;;;;;;4969028;28;20191;-77
2021/12/21 02:23:56;;;;;;;12.03;5.73;;;1.20;99.90;;;;;;4965308;28;20267;-79
2021/12/21 02:31:34;;;;;;;10.90;5.10;;;1.20;99.90;;;;;;5036350;28;20181;-77
2021/12/21 02:34:00;;;;;;;10.63;5.40;;;1.20;99.90;;;;;;5039542;28;20182;-78
2021/12/21 02:36:25;;;;;;;9.23;5.13;;;1.20;99.90;;;;;;5032815;28;20184;-77
2021/12/21 02:38:51;;;;;;;8.60;4.90;;;1.10;99.90;;;;;;4957458;28;20195;-77
2021/12/21 02:41:24;;;;;;;10.27;5.13;;;1.20;99.90;;;;;;4958846;28;20216;-77
2021/12/21 02:43:50;;;;;;;10.93;5.53;;;1.30;99.90;;;;;;4956584;28;20187;-77
2021/12/21 02:46:16;;;;;;;10.87;5.40;;;1.30;99.90;;;;;;4956531;28;20200;-77
2021/12/21 02:48:42;;;;;;;9.93;5.37;;;1.40;99.90;;;;;;4957003;28;20257;-78
2021/12/21 02:51:07;;;;;;;12.13;6.00;;;1.40;99.90;;;;;;4957183;28;20173;-78
2021/12/21 02:53:33;;;;;;;8.37;4.80;;;1.40;99.90;;;;;;4972975;28;20542;-77
2021/12/21 02:55:59;;;;;;;10.33;5.43;;;1.30;99.90;;;;;;4970488;28;20184;-78
2021/12/21 02:58:24;;;;;;;8.77;4.47;;;1.30;99.90;;;;;;4952138;28;20280;-77
2021/12/21 03:00:53;;;;;;;7.73;5.20;;;1.20;99.90;;;;;;4953526;29;20249;-77
2021/12/21 03:03:19;;;;;;;12.30;5.30;;;1.20;99.90;;;;;;4953485;29;20187;-77
2021/12/21 03:05:49;;;;;;;11.67;4.80;;;1.20;99.90;;;;;;4955277;28;20235;-77
2021/12/21 03:08:20;;;;;;;9.80;4.83;;;1.30;99.90;;;;;;4955585;28;20283;-77
2021/12/21 03:11:02;;;;;;;8.60;4.30;;;1.20;99.90;;;;;;4953077;29;20651;-77
2021/12/21 03:16:11;;;;;;;9.17;5.57;;;1.30;99.90;;;;;;4955893;28;20183;-77
2021/12/21 03:18:37;;;;;;;13.87;5.40;;;1.20;99.90;;;;;;4972248;28;20203;-76
2021/12/21 03:21:03;;;;;;;10.90;5.50;;;1.30;99.90;;;;;;4972358;28;20286;-78
2021/12/21 03:23:29;;;;;;;9.83;5.30;;;1.30;99.90;;;;;;4955990;28;20191;-77
2021/12/21 03:26:38;;;;;;;14.90;5.60;;;1.30;99.90;;;;;;4992981;28;20235;-77
2021/12/21 03:29:05;;;;;;;10.17;5.43;;;1.20;99.90;;;;;;4950359;28;20242;-77
2021/12/21 03:31:32;;;;;;;9.30;5.77;;;1.30;99.90;;;;;;4956210;28;20176;-77
2021/12/21 03:33:57;;;;;;;9.17;4.93;;;1.40;99.90;;;;;;4958439;28;20211;-77
2021/12/21 03:36:31;;;;;;;8.47;4.97;;;1.40;99.90;;;;;;4954600;28;20184;-78
2021/12/21 03:39:06;;;;;;;10.10;5.10;;;1.40;99.90;;;;;;4953159;29;20201;-78
2021/12/21 03:41:33;;;;;;;10.43;4.73;;;1.30;99.90;;;;;;4954132;29;20184;-78
2021/12/21 03:44:01;;;;;;;7.27;5.00;;;1.50;99.90;;;;;;4954937;29;20204;-77
2021/12/21 03:46:31;;;;;;;8.67;4.30;;;1.40;99.90;;;;;;4958497;28;20270;-77
2021/12/21 03:48:57;;;;;;;7.93;4.70;;;1.30;99.90;;;;;;4957268;29;20291;-77
2021/12/21 03:51:23;;;;;;;7.23;4.97;;;1.30;99.90;;;;;;4980544;28;20185;-77
2021/12/21 03:53:50;;;;;;;7.67;4.70;;;1.30;99.90;;;;;;4966966;28;20179;-77
2021/12/21 03:58:51;;;;;;;11.17;5.33;;;1.30;99.90;;;;;;4988390;28;20673;-77
2021/12/21 04:01:17;;;;;;;7.10;5.07;;;1.40;99.90;;;;;;4983711;28;20196;-76
2021/12/21 04:03:43;;;;;;;11.20;4.97;;;1.40;99.90;;;;;;4971571;28;20189;-76
2021/12/21 04:06:09;;;;;;;12.23;5.50;;;1.40;99.90;;;;;;4947779;29;20262;-77
2021/12/21 04:08:34;;;;;;;9.00;4.80;;;1.30;99.90;;;;;;4943339;29;20668;-77
2021/12/21 04:11:01;;;;;;;7.97;4.87;;;1.20;99.90;;;;;;4936020;29;20644;-77
2021/12/21 04:13:27;;;;;;;8.27;4.80;;;1.10;99.90;;;;;;4949409;28;20180;-76
2021/12/21 04:15:54;;;;;;;10.77;5.17;;;1.20;99.90;;;;;;4955461;28;20647;-76
2021/12/21 04:18:27;;;;;;;8.50;5.27;;;1.20;99.90;;;;;;4954873;28;20212;-77
2021/12/21 04:20:53;;;;;;;11.60;5.10;;;1.20;99.90;;;;;;4954850;28;20187;-77
2021/12/21 04:23:19;;;;;;;7.87;5.17;;;1.20;99.90;;;;;;4939593;28;20189;-77
2021/12/21 04:25:44;;;;;;;8.70;5.23;;;1.30;99.90;;;;;;4986886;28;20215;-78
2021/12/21 04:28:10;;;;;;;8.73;5.17;;;1.30;99.90;;;;;;4970226;28;20203;-77
2021/12/21 04:30:42;;;;;;;10.60;4.90;;;1.30;99.90;;;;;;4954921;28;20188;-77
2021/12/21 04:33:58;;;;;;;9.73;5.20;;;1.40;99.90;;;;;;4954862;28;20175;-77
2021/12/21 04:36:25;;;;;;;9.13;5.07;;;1.40;99.90;;;;;;4953983;28;20237;-77
2021/12/21 04:38:51;;;;;;;9.57;5.40;;;1.30;99.90;;;;;;4955077;28;20204;-78
2021/12/21 04:41:23;;;;;;;10.00;4.83;;;1.30;99.90;;;;;;4954991;28;20188;-77
2021/12/21 04:43:51;;;;;;;9.87;5.57;;;1.30;99.90;;;;;;4955012;28;20192;-77
2021/12/21 04:46:17;;;;;;;10.40;5.80;;;1.20;99.90;;;;;;4954626;28;20674;-77
2021/12/21 04:48:42;;;;;;;8.80;5.70;;;1.20;99.90;;;;;;4954943;28;20249;-77
2021/12/21 04:51:08;;;;;;;12.67;6.20;;;1.20;99.90;;;;;;4955296;28;20192;-77
2021/12/21 04:53:34;;;;;;;8.40;5.63;;;1.20;99.90;;;;;;4954903;28;20180;-78
2021/12/21 04:56:02;;;;;;;12.93;6.13;;;1.20;99.90;;;;;;4967858;28;20188;-78
2021/12/21 04:58:28;;;;;;;8.37;5.70;;;1.20;99.90;;;;;;5020411;28;20280;-77
2021/12/21 05:00:54;;;;;;;11.87;5.40;;;1.10;99.90;;;;;;4961088;28;20199;-76
2021/12/21 05:03:20;;;;;;;10.53;5.40;;;1.00;99.90;;;;;;4970473;28;20283;-78
2021/12/21 05:05:45;;;;;;;11.40;5.90;;;1.00;99.90;;;;;;4970506;28;20211;-77
2021/12/21 05:08:19;;;;;;;9.97;5.33;;;1.10;99.90;;;;;;4969686;28;20204;-77
2021/12/21 05:10:55;;;;;;;9.40;5.23;;;1.00;99.90;;;;;;4970980;28;20161;-77
2021/12/21 05:13:25;;;;;;;8.67;5.13;;;1.00;99.90;;;;;;4970191;28;20184;-77
2021/12/21 05:15:50;;;;;;;8.67;4.77;;;1.00;99.90;;;;;;4954435;28;20592;-78
2021/12/21 05:18:17;;;;;;;12.60;5.70;;;0.90;99.90;;;;;;4953817;28;20227;-78
2021/12/21 05:20:43;;;;;;;10.07;5.10;;;1.00;99.90;;;;;;4954549;28;20618;-78
2021/12/21 05:23:10;;;;;;;7.23;4.83;;;1.00;99.90;;;;;;4971183;28;20604;-78
2021/12/21 05:25:37;;;;;;;10.03;5.27;;;0.90;99.90;;;;;;4954159;28;20215;-77
2021/12/21 05:28:04;;;;;;;8.23;4.30;;;1.00;99.90;;;;;;4959986;28;20287;-78
2021/12/21 05:30:29;;;;;;;9.77;4.57;;;0.90;99.90;;;;;;4967903;28;20212;-77
2021/12/21 05:32:56;;;;;;;7.87;4.60;;;0.90;99.90;;;;;;4970514;28;20180;-77
2021/12/21 05:35:23;;;;;;;11.13;5.20;;;0.90;99.90;;;;;;4953402;28;20279;-77
2021/12/21 05:37:52;;;;;;;14.60;4.80;;;0.90;99.90;;;;;;4953771;28;20223;-77
2021/12/21 05:40:19;;;;;;;8.63;4.93;;;1.00;99.90;;;;;;4953925;28;20180;-77
2021/12/21 05:42:47;;;;;;;8.40;4.73;;;1.00;99.90;;;;;;4950847;29;20281;-78
2021/12/21 05:45:16;;;;;;;10.93;4.73;;;1.00;99.90;;;;;;4950896;28;20209;-77
2021/12/21 05:47:43;;;;;;;9.33;5.30;;;1.10;99.90;;;;;;4934465;29;20288;-78
2021/12/21 05:50:15;;;;;;;7.33;4.60;;;1.20;99.90;;;;;;4935030;29;20176;-77
2021/12/21 05:52:41;;;;;;;8.10;4.57;;;1.20;99.90;;;;;;4953284;28;20639;-77
2021/12/21 05:55:07;;;;;;;14.37;5.20;;;1.20;99.90;;;;;;4970279;28;20188;-77
2021/12/21 05:57:33;;;;;;;8.63;4.83;;;1.10;99.90;;;;;;4987341;28;20206;-77
2021/12/21 05:59:59;;;;;;;9.23;4.97;;;1.00;99.90;;;;;;4954226;28;20372;-78
2021/12/21 06:02:25;;;;;;;11.83;4.37;;;0.90;99.90;;;;;;4953807;28;20180;-77
2021/12/21 06:04:52;;;;;;;8.43;4.60;;;0.90;99.90;;;;;;4953855;28;20204;-78
2021/12/21 06:07:18;;;;;;;12.07;5.40;;;1.00;99.90;;;;;;4969574;28;20176;-78
2021/12/21 06:09:46;;;;;;;9.80;4.70;;;1.10;99.90;;;;;;4953957;28;20218;-78
2021/12/21 06:12:30;;;;;;;11.97;5.73;;;1.20;99.90;;;;;;4953789;28;20234;-78
2021/12/21 06:23:54;;;;;;;7.07;4.40;;;1.20;99.90;;;;;;4969702;28;20262;-78
2021/12/21 06:26:18;;;;;;;8.57;5.30;;;1.20;99.90;;;;;;4973747;28;20197;-77
2021/12/21 06:28:46;;;;;;;7.30;5.17;;;1.20;99.90;;;;;;4967560;28;20206;-77
2021/12/21 06:31:14;;;;;;;9.57;5.93;;;1.10;99.90;;;;;;4953553;28;20176;-78
2021/12/21 06:33:40;;;;;;;8.07;5.50;;;1.10;99.90;;;;;;4969559;28;20644;-77
2021/12/21 06:36:07;;;;;;;9.97;6.23;;;1.10;99.90;;;;;;4969475;28;20172;-78
2021/12/21 06:38:33;;;;;;;10.20;5.83;;;0.90;99.90;;;;;;4969087;28;20259;-78
2021/12/21 06:40:59;;;;;;;11.30;6.53;;;0.90;99.90;;;;;;4969522;28;20593;-78
2021/12/21 06:43:25;;;;;;;8.07;6.10;;;0.80;99.90;;;;;;4969016;28;20263;-78
2021/12/21 06:46:12;;;;;;;12.93;7.20;;;0.70;99.90;;;;;;4952976;28;20640;-78
2021/12/21 06:53:54;;;;;;;16.10;7.40;;;0.10;99.90;;;;;;4972517;28;20180;-78
2021/12/21 06:56:21;;;;;;;11.53;7.43;;;-0.10;99.90;;;;;;4963345;28;20268;-77
2021/12/21 06:58:59;;;;;;;12.30;7.53;;;0.00;99.90;;;;;;4970943;28;20257;-78
2021/12/21 07:01:28;;;;;;;10.77;6.70;;;-0.10;99.90;;;;;;4957148;28;20219;-77
2021/12/21 07:03:54;;;;;;;13.33;7.60;;;0.10;99.90;;;;;;4973565;28;20187;-77
2021/12/21 07:06:21;;;;;;;11.17;8.10;;;0.00;99.90;;;;;;4973789;28;20338;-78
2021/12/21 07:08:54;;;;;;;10.00;7.43;;;0.00;99.90;;;;;;4972592;28;20202;-78
2021/12/21 07:19:34;;;;;;;14.53;8.57;;;-0.10;99.90;;;;;;4974124;28;20196;-78
2021/12/21 07:21:59;;;;;;;15.27;8.77;;;0.10;99.90;;;;;;4965368;28;20190;-77
2021/12/21 07:24:25;;;;;;;14.30;8.40;;;0.30;99.90;;;;;;4956089;28;20184;-77
2021/12/21 07:27:03;;;;;;;10.10;7.53;;;0.20;99.90;;;;;;4966137;28;20176;-78
2021/12/21 07:29:28;;;;;;;11.27;8.30;;;0.20;99.90;;;;;;4961677;28;20230;-77
2021/12/21 07:31:54;;;;;;;11.30;8.53;;;0.20;99.90;;;;;;4970351;28;20211;-78
2021/12/21 07:34:20;;;;;;;13.93;8.03;;;0.30;99.90;;;;;;4964862;28;20187;-78
2021/12/21 07:36:55;;;;;;;11.00;8.40;;;0.40;99.90;;;;;;5038177;28;20561;-79
2021/12/21 07:39:21;;;;;;;11.67;7.97;;;0.40;99.90;;;;;;4983993;28;20192;-77
2021/12/21 07:41:50;;;;;;;11.60;7.63;;;0.30;99.90;;;;;;4961262;28;20198;-78
2021/12/21 07:44:15;;;;;;;13.73;7.80;;;0.30;99.90;;;;;;4998595;28;20199;-77
2021/12/21 07:46:42;;;;;;;9.63;7.47;;;0.20;99.90;;;;;;4967085;28;20185;-77
2021/12/21 07:49:14;;;;;;;11.83;7.80;;;0.10;99.90;;;;;;4965581;28;20200;-77
2021/12/21 07:51:40;;;;;;;14.67;8.13;;;0.10;99.90;;;;;;4973332;28;20642;-78
2021/12/21 07:54:05;;;;;;;11.80;8.37;;;0.10;99.90;;;;;;4960217;28;20184;-77
2021/12/21 07:56:35;;;;;;;13.77;8.77;;;0.20;99.90;;;;;;4970139;28;20176;-77
2021/12/21 07:59:02;;;;;;;15.33;8.80;;;0.20;99.90;;;;;;4955646;28;20205;-77
2021/12/21 08:01:27;;;;;;;14.63;8.73;;;0.30;99.90;;;;;;4955968;28;20189;-78
2021/12/21 08:03:54;;;;;;;13.67;8.93;;;0.20;99.90;;;;;;4955795;28;20189;-78
2021/12/21 08:06:21;;;;;;;18.70;8.47;;;0.00;99.90;;;;;;4972158;28;20200;-77
2021/12/21 08:08:52;;;;;;;17.53;9.70;;;-0.10;99.90;;;;;;4971519;28;20729;-78
2021/12/21 08:14:04;;;;;;;16.77;8.97;;;0.10;99.90;;;;;;4971452;28;20172;-78
2021/12/21 08:16:34;;;;;;;17.70;10.37;;;0.20;99.90;;;;;;4955084;28;20646;-78
2021/12/21 08:19:22;;;;;;;16.33;10.33;;;0.10;99.90;;;;;;4955322;28;20215;-76
2021/12/21 08:22:13;;;;;;;18.23;10.03;;;0.10;99.90;;;;;;4952723;29;20181;-77
2021/12/21 08:24:40;;;;;;;16.23;10.03;;;0.10;99.90;;;;;;4956395;28;20298;-77
2021/12/21 08:27:06;;;;;;;15.67;9.83;;;0.10;99.90;;;;;;4957188;28;20223;-78
2021/12/21 08:29:32;;;;;;;16.47;9.60;;;0.10;99.90;;;;;;4962871;28;20326;-80
2021/12/21 08:31:57;;;;;;;17.63;10.43;;;0.10;99.90;;;;;;4951991;28;20592;-78
2021/12/21 08:34:23;;;;;;;15.60;10.03;;;0.10;99.90;;;;;;4956233;28;20180;-78
2021/12/21 08:36:49;;;;;;;18.27;10.43;;;0.10;99.90;;;;;;4956610;28;20235;-79
2021/12/21 08:39:17;;;;;;;18.37;10.60;;;0.20;99.90;;;;;;4950704;28;20196;-77
2021/12/21 08:41:44;;;;;;;16.07;10.33;;;0.30;99.90;;;;;;4953460;28;20184;-78
2021/12/21 08:44:11;;;;;;;19.97;11.37;;;0.30;99.90;;;;;;4974274;28;20192;-79
2021/12/21 08:46:39;;;;;;;18.97;10.00;;;0.40;99.90;;;;;;4955303;28;20230;-79
2021/12/21 08:49:17;;;;;;;18.10;10.13;;;0.40;99.90;;;;;;4953613;29;20300;-76
2021/12/21 08:51:51;;;;;;;15.53;9.07;;;0.50;99.90;;;;;;4954859;28;20171;-79
2021/12/21 08:54:33;;;;;;;17.13;10.10;;;0.50;99.90;;;;;;4958653;28;20184;-78
2021/12/21 08:56:58;;;;;;;13.03;8.53;;;0.70;99.90;;;;;;4978420;28;20176;-78
2021/12/21 08:59:28;;;;;;;14.00;9.10;;;0.70;99.90;;;;;;4954812;28;20207;-78
2021/12/21 09:02:02;;;;;;;12.90;8.53;;;0.80;99.90;;;;;;4949943;28;20184;-78
2021/12/21 09:04:48;;;;;;;15.83;9.30;;;0.80;99.90;;;;;;4963024;28;20184;-78
2021/12/21 09:07:25;;;;;;;15.03;9.00;;;0.90;99.90;;;;;;4973885;28;20211;-78
2021/12/21 09:09:57;;;;;;;14.43;9.47;;;0.80;99.90;;;;;;4969916;28;20216;-78
2021/12/21 09:12:24;;;;;;;13.73;9.27;;;0.90;99.90;;;;;;4960947;28;20192;-79
2021/12/21 09:14:49;;;;;;;13.97;8.97;;;1.10;99.90;;;;;;4994352;28;20196;-78
2021/12/21 09:17:15;;;;;;;12.17;8.30;;;1.20;99.90;;;;;;4988191;28;20183;-78
2021/12/21 09:19:41;;;;;;;14.53;9.00;;;1.30;99.90;;;;;;4986683;28;20303;-78
2021/12/21 09:22:07;;;;;;;16.03;8.50;;;1.10;99.90;;;;;;4956049;28;20186;-78
2021/12/21 09:24:33;;;;;;;11.90;8.40;;;0.90;99.90;;;;;;4993770;28;20192;-78
2021/12/21 09:26:59;;;;;;;12.13;8.70;;;1.00;99.90;;;;;;5000955;28;20241;-77
2021/12/21 09:29:24;;;;;;;13.30;8.63;;;1.10;99.90;;;;;;4995104;28;20200;-77
2021/12/21 09:31:52;;;;;;;11.83;8.73;;;1.20;99.90;;;;;;4961837;28;20184;-79
2021/12/21 09:34:18;;;;;;;13.17;8.90;;;1.40;99.90;;;;;;4976807;28;20161;-78
2021/12/21 09:36:48;;;;;;;12.70;8.20;;;1.30;99.90;;;;;;4995848;28;20181;-79
2021/12/21 09:39:15;;;;;;;15.67;8.73;;;1.30;99.90;;;;;;4965705;28;20188;-79
2021/12/21 09:41:45;;;;;;;15.53;8.83;;;1.40;99.90;;;;;;4988633;28;20188;-79
2021/12/21 09:44:11;;;;;;;9.10;7.33;;;1.60;99.90;;;;;;4969710;28;20204;-78
2021/12/21 09:46:37;;;;;;;12.03;8.27;;;1.70;99.90;;;;;;4971126;28;20275;-78
2021/12/21 09:49:04;;;;;;;11.70;7.90;;;1.90;99.90;;;;;;4956642;28;20199;-79
2021/12/21 09:51:30;;;;;;;12.23;7.80;;;2.00;99.90;;;;;;4950606;28;20197;-79
2021/12/21 09:53:59;;;;;;;10.83;7.43;;;2.10;99.90;;;;;;5007487;28;20184;-78
2021/12/21 09:56:25;;;;;;;12.33;7.83;;;2.20;99.90;;;;;;4951261;28;20185;-78
2021/12/21 09:59:05;;;;;;;12.37;8.00;;;2.10;99.90;;;;;;4963702;28;20211;-78
2021/12/21 10:01:34;;;;;;;12.30;7.87;;;2.00;99.90;;;;;;4951198;28;20662;-78
2021/12/21 10:04:03;;;;;;;15.97;8.53;;;1.90;99.90;;;;;;4993083;28;20176;-80
2021/12/21 10:06:42;;;;;;;12.73;8.60;;;1.80;99.90;;;;;;4995531;28;20200;-79
2021/12/21 10:09:15;;;;;;;11.30;7.97;;;1.80;99.90;;;;;;4966485;28;20200;-78
2021/12/21 10:11:44;;;;;;;11.10;7.97;;;1.70;99.90;;;;;;4964521;28;20268;-78
2021/12/21 10:14:18;;;;;;;12.17;7.93;;;1.70;99.90;;;;;;4949052;28;20188;-79
2021/12/21 10:16:58;;;;;;;11.70;8.03;;;1.80;99.90;;;;;;4952640;28;20172;-78
2021/12/21 10:19:32;;;;;;;12.17;7.70;;;1.90;99.90;;;;;;4958661;28;20204;-79
2021/12/21 10:22:31;;;;;;;8.97;7.10;;;1.90;99.90;;;;;;4962631;28;20177;-78
2021/12/21 10:25:00;;;;;;;12.20;7.97;;;1.90;99.90;;;;;;4957820;28;20214;-78
2021/12/21 10:27:43;;;;;;;10.97;7.63;;;1.90;99.90;;;;;;4999838;28;20299;-78
2021/12/21 10:30:16;;;;;;;12.33;7.97;;;1.90;99.90;;;;;;5019810;28;20175;-78
2021/12/21 10:32:55;;;;;;;12.63;7.57;;;1.70;99.90;;;;;;4989156;28;20179;-78
2021/12/21 10:35:32;;;;;;;10.20;7.13;;;1.60;99.90;;;;;;4955928;28;20191;-78
2021/12/21 10:38:05;;;;;;;12.67;7.97;;;1.60;99.90;;;;;;4968226;28;20210;-78
2021/12/21 10:40:38;;;;;;;10.33;7.13;;;1.50;99.90;;;;;;4953180;28;20186;-78
2021/12/21 10:43:07;;;;;;;13.73;8.33;;;1.30;99.90;;;;;;4983669;28;20187;-78
2021/12/21 10:45:39;;;;;;;14.27;8.83;;;1.60;99.90;;;;;;4944719;28;20203;-78
2021/12/21 10:48:19;;;;;;;14.50;8.73;;;1.70;99.90;;;;;;4945258;28;20205;-78
2021/12/21 10:50:46;;;;;;;9.73;7.40;;;1.80;99.90;;;;;;4963376;28;20215;-78
2021/12/21 10:53:18;;;;;;;12.07;8.00;;;1.70;99.90;;;;;;4948083;28;20184;-78
2021/12/21 10:55:45;;;;;;;10.30;8.43;;;1.60;99.90;;;;;;4946653;28;20176;-78
2021/12/21 10:58:18;;;;;;;16.70;9.27;;;1.70;99.90;;;;;;4952740;28;20215;-78
2021/12/21 11:00:54;;;;;;;15.67;9.50;;;1.80;99.90;;;;;;4951365;29;20576;-78
2021/12/21 11:03:39;;;;;;;10.90;9.17;;;1.70;99.90;;;;;;4997416;28;20169;-78
2021/12/21 11:06:36;;;;;;;15.80;8.80;;;1.60;99.90;;;;;;4952424;28;20688;-78
2021/12/21 11:09:04;;;;;;;14.30;9.50;;;1.50;99.90;;;;;;4965460;28;20288;-78
2021/12/21 11:11:43;;;;;;;11.43;9.00;;;1.40;99.90;;;;;;5000440;28;20327;-79
2021/12/21 11:14:15;;;;;;;16.33;10.33;;;1.40;99.90;;;;;;5011882;28;20188;-79
2021/12/21 11:16:51;;;;;;;12.63;9.60;;;1.40;99.90;;;;;;4968836;28;20188;-78
2021/12/21 11:19:23;;;;;;;10.77;8.67;;;1.40;99.90;;;;;;4949199;28;20268;-78
2021/12/21 11:21:53;;;;;;;14.97;9.30;;;1.50;99.90;;;;;;4971080;28;20191;-78
2021/12/21 11:24:20;;;;;;;12.20;8.97;;;1.50;99.90;;;;;;4963925;28;20259;-79
2021/12/21 11:26:48;;;;;;;11.43;8.80;;;1.50;99.90;;;;;;4982609;28;20752;-79
2021/12/21 11:29:17;;;;;;;10.73;9.23;;;1.50;99.90;;;;;;4964705;28;20204;-79
2021/12/21 11:31:52;;;;;;;12.13;9.30;;;1.40;99.90;;;;;;4949588;28;20295;-78
2021/12/21 11:34:21;;;;;;;13.70;8.73;;;1.50;99.90;;;;;;4946207;28;20408;-76
2021/12/21 11:39:42;;;;;;;18.33;9.50;;;1.40;99.90;;;;;;4967000;28;20200;-78
2021/12/21 11:42:10;;;;;;;12.37;8.53;;;1.40;99.90;;;;;;4961936;28;20181;-78
2021/12/21 11:44:53;;;;;;;12.30;8.83;;;1.40;99.90;;;;;;4971545;28;20647;-76
2021/12/21 11:47:27;;;;;;;13.47;8.40;;;1.30;99.90;;;;;;4996856;28;20169;-78
2021/12/21 11:49:58;;;;;;;14.67;9.13;;;1.20;99.90;;;;;;4982992;28;20202;-77
2021/12/21 11:52:27;;;;;;;13.63;9.57;;;1.40;99.90;;;;;;4969300;28;20172;-76
2021/12/21 11:55:17;;;;;;;15.37;9.60;;;1.60;99.90;;;;;;4956085;28;20189;-78
2021/12/21 11:57:51;;;;;;;12.43;8.40;;;1.60;99.90;;;;;;4947418;28;20184;-78
2021/12/21 12:00:32;;;;;;;15.03;8.87;;;1.70;99.90;;;;;;4961570;28;20262;-77
2021/12/21 12:03:10;;;;;;;15.07;9.03;;;1.80;99.90;;;;;;4959909;28;20181;-78
2021/12/21 12:05:36;;;;;;;15.23;9.20;;;1.80;99.90;;;;;;4963921;28;20217;-78
2021/12/21 12:08:13;;;;;;;12.00;8.73;;;1.80;99.90;;;;;;4958338;28;20262;-77
2021/12/21 12:11:00;;;;;;;12.00;7.03;;;1.80;99.90;;;;;;4957723;28;20175;-76
2021/12/21 12:13:40;;;;;;;16.60;7.70;;;1.70;99.90;;;;;;4957608;28;20184;-77
2021/12/21 12:16:38;;;;;;;10.97;6.50;;;1.60;99.90;;;;;;4966017;28;20177;-77
2021/12/21 12:19:29;;;;;;;9.53;7.20;;;1.70;99.90;;;;;;4964812;28;20239;-76
2021/12/21 12:22:04;;;;;;;11.60;7.20;;;1.80;99.90;;;;;;4989577;28;20172;-78
2021/12/21 12:25:06;;;;;;;13.03;6.90;;;1.90;99.90;;;;;;4977153;28;20179;-78
2021/12/21 12:27:32;;;;;;;9.47;6.77;;;2.10;99.90;;;;;;5014389;28;20186;-76
2021/12/21 12:30:17;;;;;;;12.10;6.63;;;2.00;99.90;;;;;;4990985;28;20267;-77
2021/12/21 12:32:48;;;;;;;14.13;7.13;;;2.00;99.90;;;;;;4973672;28;20173;-76
2021/12/21 12:35:27;;;;;;;11.83;6.67;;;2.00;99.90;;;;;;4974675;28;20188;-76
2021/12/21 12:38:17;;;;;;;8.33;6.23;;;2.00;99.90;;;;;;4970631;28;20212;-76
2021/12/21 12:40:52;;;;;;;10.87;5.30;;;2.10;99.90;;;;;;4978765;28;20176;-77
2021/12/21 12:43:25;;;;;;;9.00;4.90;;;2.10;99.90;;;;;;4969640;28;20180;-77
2021/12/21 12:46:02;;;;;;;9.20;4.70;;;2.20;99.90;;;;;;4987262;28;20203;-76
2021/12/21 12:48:48;;;;;;;10.40;4.47;;;2.20;99.90;;;;;;4969426;28;20233;-77
2021/12/21 12:51:36;;;;;;;11.13;4.50;;;2.00;99.90;;;;;;4972405;28;20153;-77
2021/12/21 12:54:14;;;;;;;8.77;4.87;;;1.90;99.90;;;;;;4977405;28;20195;-77
2021/12/21 12:56:44;;;;;;;8.50;4.43;;;1.90;99.90;;;;;;4979413;28;20278;-78
2021/12/21 12:59:10;;;;;;;11.73;4.20;;;1.90;99.90;;;;;;4963594;28;20204;-79
2021/12/21 13:01:42;;;;;;;9.03;4.40;;;1.90;99.90;;;;;;4978047;28;20225;-77
2021/12/21 13:04:10;;;;;;;7.37;3.80;;;1.90;99.90;;;;;;5012293;28;20179;-78
2021/12/21 13:06:38;;;;;;;7.63;4.33;;;1.90;99.90;;;;;;4983079;28;20220;-78
2021/12/21 13:09:12;;;;;;;7.10;4.40;;;2.00;99.90;;;;;;4964021;28;20208;-78
2021/12/21 13:11:42;;;;;;;9.07;4.43;;;2.20;99.90;;;;;;4992834;28;20205;-78
2021/12/21 13:14:18;;;;;;;12.07;5.80;;;2.30;99.90;;;;;;4978909;28;20216;-78
2021/12/21 13:16:47;;;;;;;10.63;5.33;;;2.40;99.90;;;;;;4975650;28;20175;-78
2021/12/21 13:19:14;;;;;;;9.67;5.40;;;2.40;99.90;;;;;;5003469;28;20208;-79
2021/12/21 13:21:58;;;;;;;11.80;6.13;;;2.40;99.90;;;;;;4967691;28;20577;-79
2021/12/21 13:24:33;;;;;;;7.37;5.53;;;2.40;99.90;;;;;;4971729;28;20194;-79
2021/12/21 13:27:01;;;;;;;8.70;5.93;;;2.40;99.90;;;;;;4966162;28;20187;-79
2021/12/21 13:29:34;;;;;;;9.60;5.73;;;2.70;99.90;;;;;;4985851;28;20202;-78
2021/12/21 13:32:08;;;;;;;11.00;5.67;;;2.50;99.90;;;;;;4964142;28;20160;-77
2021/12/21 13:34:35;;;;;;;8.23;5.00;;;2.50;99.90;;;;;;4963444;28;20179;-77
2021/12/21 13:37:06;;;;;;;12.03;5.43;;;2.50;99.90;;;;;;4962166;28;20177;-78
2021/12/21 13:39:38;;;;;;;13.47;5.37;;;2.40;99.90;;;;;;4962703;28;20192;-78
2021/12/21 13:42:06;;;;;;;9.80;5.60;;;2.30;99.90;;;;;;4960150;28;20180;-78
2021/12/21 13:44:47;;;;;;;11.03;5.90;;;2.30;99.90;;;;;;4963355;28;20199;-78
2021/12/21 13:47:18;;;;;;;11.73;5.67;;;2.20;99.90;;;;;;4974684;28;20180;-78
2021/12/21 13:50:23;;;;;;;13.63;5.90;;;2.30;99.90;;;;;;5008618;28;20196;-78
2021/12/21 13:52:57;;;;;;;8.10;5.03;;;2.40;99.90;;;;;;4955140;29;20577;-78
2021/12/21 13:55:26;;;;;;;12.00;5.10;;;2.40;99.90;;;;;;4964160;28;20238;-78
2021/12/21 13:57:57;;;;;;;10.10;5.27;;;2.40;99.90;;;;;;4949328;28;20200;-77
2021/12/21 14:00:26;;;;;;;9.30;4.83;;;2.30;99.90;;;;;;4951409;28;20321;-78
2021/12/21 14:03:17;;;;;;;7.77;4.60;;;2.40;99.90;;;;;;4967990;28;20231;-78
2021/12/21 14:05:46;;;;;;;9.70;5.13;;;2.50;99.90;;;;;;4969056;28;20203;-78
2021/12/21 14:08:17;;;;;;;12.50;5.00;;;2.40;99.90;;;;;;4951398;28;20223;-77
2021/12/21 14:10:46;;;;;;;9.20;5.80;;;2.40;99.90;;;;;;4960235;28;20180;-79
2021/12/21 14:13:13;;;;;;;12.57;6.20;;;2.30;99.90;;;;;;4984198;28;20184;-78
2021/12/21 14:15:52;;;;;;;11.57;5.60;;;2.40;99.90;;;;;;5004395;28;20253;-76
2021/12/21 14:18:28;;;;;;;11.80;5.37;;;2.40;99.90;;;;;;4952385;28;20219;-77
2021/12/21 14:21:05;;;;;;;11.00;5.90;;;2.30;99.90;;;;;;4960698;28;20176;-78
2021/12/21 14:23:32;;;;;;;9.17;5.57;;;2.30;99.90;;;;;;4968057;28;20174;-78